Time;durP1;ratioP1;P1;durP2;ratioP2;P2;SDS_P1;SDS_P2;PMS_P1;PMS_P2;Temp;Humidity;BMP_temperature;BMP_pressure;BME280_temperature;BME280_humidity;BME280_pressure;Samples;Min_cycle;Max_cycle;Signal;HPM_P1;HPM_P2
2022/03/17 00:01:32;;;;;;;43.07;30.40;;;9.10;99.90;;;;;;4991613;28;20212;-71
2022/03/17 00:03:58;;;;;;;46.03;32.93;;;9.10;99.90;;;;;;4990705;28;20190;-71
2022/03/17 00:06:23;;;;;;;47.53;32.80;;;9.10;99.90;;;;;;4992878;28;20444;-71
2022/03/17 00:08:49;;;;;;;48.60;31.60;;;9.10;99.90;;;;;;4993062;28;20486;-71
2022/03/17 00:11:15;;;;;;;45.87;31.00;;;9.00;99.90;;;;;;4993182;28;20221;-70
2022/03/17 00:13:41;;;;;;;45.30;32.03;;;9.00;99.90;;;;;;4993054;28;20209;-71
2022/03/17 00:16:09;;;;;;;44.23;30.73;;;9.00;99.90;;;;;;4993420;28;20741;-71
2022/03/17 00:18:35;;;;;;;42.27;32.07;;;9.00;99.90;;;;;;4991732;28;20422;-71
2022/03/17 00:21:00;;;;;;;45.23;32.47;;;9.00;99.90;;;;;;4993023;28;20439;-69
2022/03/17 00:23:26;;;;;;;47.80;34.07;;;9.00;99.90;;;;;;4992323;28;20515;-73
2022/03/17 00:25:52;;;;;;;46.77;32.10;;;8.90;99.90;;;;;;4992803;28;20183;-72
2022/03/17 00:28:17;;;;;;;45.83;31.90;;;9.00;99.90;;;;;;4992860;28;20259;-69
2022/03/17 00:30:43;;;;;;;45.50;33.30;;;8.90;99.90;;;;;;4992766;28;20201;-69
2022/03/17 00:33:08;;;;;;;46.73;32.83;;;8.90;99.90;;;;;;4992418;28;20669;-69
2022/03/17 00:35:38;;;;;;;40.93;31.90;;;8.90;99.90;;;;;;4992475;28;20184;-70
2022/03/17 00:38:09;;;;;;;46.70;30.60;;;8.90;99.90;;;;;;4992472;28;20192;-73
2022/03/17 00:40:36;;;;;;;45.53;32.17;;;8.80;99.90;;;;;;4992631;28;20512;-69
2022/03/17 00:43:06;;;;;;;47.10;32.50;;;8.70;99.90;;;;;;4992145;28;20413;-72
2022/03/17 00:45:32;;;;;;;46.87;33.00;;;8.60;99.90;;;;;;4992383;28;20952;-72
2022/03/17 00:47:58;;;;;;;43.17;31.73;;;8.60;99.90;;;;;;4992370;28;20462;-70
2022/03/17 00:50:24;;;;;;;46.43;31.67;;;8.60;99.90;;;;;;4992205;28;20441;-72
2022/03/17 00:52:50;;;;;;;48.20;32.57;;;8.50;99.90;;;;;;4991880;28;20813;-70
2022/03/17 00:55:16;;;;;;;46.07;31.43;;;8.50;99.90;;;;;;4992223;28;20422;-70
2022/03/17 00:57:42;;;;;;;48.23;32.40;;;8.50;99.90;;;;;;4992856;28;20206;-70
2022/03/17 01:00:10;;;;;;;50.00;31.70;;;8.50;99.90;;;;;;4992518;28;20413;-72
2022/03/17 01:02:36;;;;;;;47.50;32.37;;;8.50;99.90;;;;;;4991851;28;20438;-73
2022/03/17 01:05:02;;;;;;;46.80;32.67;;;8.60;99.90;;;;;;4991786;28;20414;-70
2022/03/17 01:07:27;;;;;;;43.13;30.93;;;8.60;99.90;;;;;;4992115;28;20551;-70
2022/03/17 01:09:53;;;;;;;45.80;31.23;;;8.60;99.90;;;;;;4990752;28;20479;-70
2022/03/17 01:12:19;;;;;;;46.90;30.70;;;8.50;99.90;;;;;;4991584;28;20198;-70
2022/03/17 01:14:44;;;;;;;43.70;31.03;;;8.50;99.90;;;;;;4991312;28;20174;-73
2022/03/17 01:17:10;;;;;;;43.03;29.83;;;8.50;99.90;;;;;;4991065;28;20251;-73
2022/03/17 01:19:36;;;;;;;45.43;31.80;;;8.50;99.90;;;;;;4991727;28;20184;-73
2022/03/17 01:22:02;;;;;;;45.53;30.30;;;8.50;99.90;;;;;;4991444;28;20443;-73
2022/03/17 01:24:27;;;;;;;46.00;30.53;;;8.50;99.90;;;;;;4988914;28;20264;-73
2022/03/17 01:26:53;;;;;;;43.20;30.40;;;8.50;99.90;;;;;;4991619;28;20183;-73
2022/03/17 01:29:19;;;;;;;39.63;29.97;;;8.40;99.90;;;;;;4991093;28;20215;-73
2022/03/17 01:31:45;;;;;;;46.93;31.47;;;8.40;99.90;;;;;;4991321;28;20223;-73
2022/03/17 01:34:11;;;;;;;44.80;30.97;;;8.30;99.90;;;;;;4991355;28;20424;-73
2022/03/17 01:36:37;;;;;;;44.77;31.27;;;8.30;99.90;;;;;;4994597;28;20412;-73
2022/03/17 01:39:04;;;;;;;45.07;30.90;;;8.20;99.90;;;;;;4994860;28;20186;-73
2022/03/17 01:41:29;;;;;;;48.30;30.00;;;8.10;99.90;;;;;;4994393;28;20251;-73
2022/03/17 01:43:55;;;;;;;40.33;29.33;;;8.10;99.90;;;;;;4994490;28;20417;-73
2022/03/17 01:46:21;;;;;;;47.20;30.87;;;8.00;99.90;;;;;;4994392;28;20218;-73
2022/03/17 01:48:47;;;;;;;39.07;27.30;;;8.00;99.90;;;;;;4994605;28;20221;-73
2022/03/17 01:51:12;;;;;;;40.00;28.23;;;7.90;99.90;;;;;;4994197;28;20198;-73
2022/03/17 01:53:38;;;;;;;43.07;29.80;;;7.90;99.90;;;;;;4994434;28;20418;-73
2022/03/17 01:56:04;;;;;;;41.27;29.00;;;7.80;99.90;;;;;;4994399;28;20218;-73
2022/03/17 01:58:31;;;;;;;39.40;27.70;;;7.80;99.90;;;;;;4994558;28;20194;-73
2022/03/17 03:31:34;;;;;;;43.77;29.67;;;7.10;99.90;;;;;;5772480;22;20989;-72
2022/03/17 03:34:00;;;;;;;40.57;27.23;;;7.10;99.90;;;;;;4989785;28;20935;-71
2022/03/17 03:39:10;;;;;;;38.03;27.57;;;7.20;99.90;;;;;;4990637;28;20240;-72
2022/03/17 03:41:36;;;;;;;45.83;29.27;;;7.20;99.90;;;;;;4983392;28;20652;-72
2022/03/17 03:44:02;;;;;;;42.57;28.03;;;7.20;99.90;;;;;;4992596;28;20192;-72
2022/03/17 03:46:28;;;;;;;39.67;27.00;;;7.20;99.90;;;;;;4992545;28;20406;-71
2022/03/17 03:48:54;;;;;;;41.63;27.90;;;7.20;99.90;;;;;;4991218;28;20559;-72
2022/03/17 03:51:19;;;;;;;49.07;28.80;;;7.20;99.90;;;;;;4992033;28;20196;-72
2022/03/17 03:56:31;;;;;;;39.17;27.20;;;7.20;99.90;;;;;;4992874;28;20190;-71
2022/03/17 03:58:58;;;;;;;38.23;26.50;;;7.30;99.90;;;;;;4992341;28;20661;-72
2022/03/17 04:01:25;;;;;;;41.07;27.70;;;7.30;99.90;;;;;;4991989;28;20441;-72
2022/03/17 04:03:52;;;;;;;42.57;28.00;;;7.30;99.90;;;;;;4991946;28;20487;-72
2022/03/17 04:06:17;;;;;;;39.50;29.07;;;7.30;99.90;;;;;;4992107;28;20413;-71
2022/03/17 04:08:43;;;;;;;46.60;28.73;;;7.30;99.90;;;;;;4992211;28;20830;-72
2022/03/17 04:11:09;;;;;;;42.20;29.43;;;7.30;99.90;;;;;;4991943;28;20329;-72
2022/03/17 04:13:35;;;;;;;40.67;27.90;;;7.30;99.90;;;;;;4992169;28;20176;-72
2022/03/17 04:16:01;;;;;;;44.93;29.17;;;7.40;99.90;;;;;;4991979;28;20776;-72
2022/03/17 04:18:26;;;;;;;40.83;28.70;;;7.40;99.90;;;;;;4992050;28;20758;-72
2022/03/17 04:20:52;;;;;;;45.67;28.27;;;7.40;99.90;;;;;;4991856;28;20285;-72
2022/03/17 04:23:18;;;;;;;43.00;29.70;;;7.40;99.90;;;;;;4992000;28;20176;-72
2022/03/17 04:25:43;;;;;;;46.10;29.13;;;7.30;99.90;;;;;;4992108;28;20180;-72
2022/03/17 04:28:09;;;;;;;43.33;30.37;;;7.30;99.90;;;;;;4991643;28;20210;-72
2022/03/17 04:30:36;;;;;;;43.10;29.27;;;7.30;99.90;;;;;;4991792;28;20202;-71
2022/03/17 04:33:02;;;;;;;38.87;28.80;;;7.30;99.90;;;;;;4991414;28;20275;-72
2022/03/17 04:35:27;;;;;;;40.37;27.57;;;7.30;99.90;;;;;;4991851;28;20830;-72
2022/03/17 04:37:53;;;;;;;40.87;29.30;;;7.30;99.90;;;;;;4991757;28;20417;-71
2022/03/17 04:40:19;;;;;;;46.20;29.80;;;7.30;99.90;;;;;;4991623;28;20656;-72
2022/03/17 04:42:44;;;;;;;41.00;28.80;;;7.20;99.90;;;;;;4991562;28;20678;-72
2022/03/17 04:45:10;;;;;;;42.33;28.97;;;7.30;99.90;;;;;;4991710;28;20172;-73
2022/03/17 04:47:36;;;;;;;43.93;30.10;;;7.30;99.90;;;;;;4991435;28;20196;-72
2022/03/17 04:50:01;;;;;;;48.23;31.00;;;7.30;99.90;;;;;;4990358;28;20204;-72
2022/03/17 04:55:11;;;;;;;42.27;29.17;;;7.20;99.90;;;;;;4991738;28;20181;-72
2022/03/17 04:57:36;;;;;;;46.33;31.30;;;7.30;99.90;;;;;;4990324;28;20944;-72
2022/03/17 05:00:03;;;;;;;47.93;31.93;;;7.30;99.90;;;;;;4991512;28;20209;-72
2022/03/17 05:02:29;;;;;;;42.53;29.53;;;7.20;99.90;;;;;;4991383;28;20227;-72
2022/03/17 05:04:54;;;;;;;45.37;30.23;;;7.20;99.90;;;;;;4991430;28;20427;-72
2022/03/17 05:07:20;;;;;;;46.37;30.70;;;7.20;99.90;;;;;;4991406;28;20201;-73
2022/03/17 05:09:45;;;;;;;47.13;30.10;;;7.20;99.90;;;;;;4992760;28;20207;-73
2022/03/17 05:12:11;;;;;;;44.73;27.73;;;7.20;99.90;;;;;;4995155;28;20253;-73
2022/03/17 05:14:37;;;;;;;46.13;32.07;;;7.20;99.90;;;;;;4995047;28;20225;-73
2022/03/17 05:17:03;;;;;;;45.60;31.93;;;7.20;99.90;;;;;;4995527;28;20173;-72
2022/03/17 05:19:29;;;;;;;43.53;29.87;;;7.20;99.90;;;;;;4995216;28;20482;-73
2022/03/17 05:21:54;;;;;;;47.93;31.40;;;7.30;99.90;;;;;;4995367;28;20195;-73
2022/03/17 05:24:20;;;;;;;50.03;30.90;;;7.30;99.90;;;;;;4994977;28;20186;-73
2022/03/17 05:26:46;;;;;;;47.33;30.37;;;7.30;99.90;;;;;;4995313;28;20742;-74
2022/03/17 05:29:12;;;;;;;47.90;28.87;;;7.20;99.90;;;;;;4995479;28;20553;-72
2022/03/17 05:31:38;;;;;;;54.87;32.60;;;7.20;99.90;;;;;;4994665;28;20297;-75
2022/03/17 05:34:04;;;;;;;63.70;38.77;;;7.30;99.90;;;;;;4995066;28;20181;-75
2022/03/17 05:36:29;;;;;;;47.30;31.30;;;7.30;99.90;;;;;;4994728;28;20491;-75
2022/03/17 05:38:55;;;;;;;44.80;28.60;;;7.30;99.90;;;;;;4995052;28;20427;-75
2022/03/17 05:41:21;;;;;;;49.93;30.13;;;7.30;99.90;;;;;;4994621;28;20204;-75
2022/03/17 05:43:46;;;;;;;48.53;31.43;;;7.30;99.90;;;;;;4994916;28;20187;-75
2022/03/17 05:46:12;;;;;;;46.43;32.10;;;7.30;99.90;;;;;;4993557;28;20482;-75
2022/03/17 05:48:40;;;;;;;47.73;31.93;;;7.40;99.90;;;;;;4994510;28;20219;-75
2022/03/17 05:51:05;;;;;;;46.47;31.10;;;7.40;99.90;;;;;;4993276;28;20194;-75
2022/03/17 05:53:31;;;;;;;46.57;30.20;;;7.40;99.90;;;;;;4994190;28;20410;-75
2022/03/17 05:55:56;;;;;;;46.83;30.13;;;7.40;99.90;;;;;;4994682;28;20172;-75
2022/03/17 05:58:22;;;;;;;45.60;30.77;;;7.40;99.90;;;;;;4994252;28;20176;-75
2022/03/17 06:00:48;;;;;;;55.43;33.83;;;7.50;99.90;;;;;;4994599;28;20214;-75
2022/03/17 06:03:13;;;;;;;46.03;30.20;;;7.50;99.90;;;;;;4993830;28;20586;-75
2022/03/17 06:05:39;;;;;;;44.60;30.80;;;7.50;99.90;;;;;;4994649;28;20187;-75
2022/03/17 06:08:05;;;;;;;48.20;31.70;;;7.50;99.90;;;;;;4994288;28;20665;-75
2022/03/17 06:10:33;;;;;;;45.03;31.40;;;7.60;99.90;;;;;;4994319;28;20196;-75
2022/03/17 06:13:00;;;;;;;47.40;31.33;;;7.70;99.90;;;;;;4994270;28;20422;-75
2022/03/17 06:15:27;;;;;;;55.73;32.83;;;7.80;99.90;;;;;;4994145;28;20425;-75
2022/03/17 06:17:55;;;;;;;52.20;32.00;;;7.80;99.90;;;;;;4994518;28;20795;-75
2022/03/17 06:20:23;;;;;;;49.67;31.67;;;7.90;99.90;;;;;;4993693;28;20830;-75
2022/03/17 06:22:51;;;;;;;64.33;32.03;;;8.00;99.90;;;;;;4993357;28;20450;-75
2022/03/17 06:25:18;;;;;;;53.90;32.30;;;7.90;99.90;;;;;;4994087;28;20414;-75
2022/03/17 06:27:45;;;;;;;56.20;29.27;;;8.00;99.90;;;;;;4994184;28;20504;-75
2022/03/17 06:30:23;;;;;;;54.00;32.20;;;8.00;99.90;;;;;;4993877;28;20476;-75
2022/03/17 06:32:50;;;;;;;48.50;31.63;;;8.00;99.90;;;;;;4993537;28;20550;-75
2022/03/17 06:35:21;;;;;;;52.60;31.60;;;8.00;99.90;;;;;;4992728;28;20801;-75
2022/03/17 06:37:50;;;;;;;48.47;29.97;;;8.10;99.90;;;;;;4993842;28;20448;-75
2022/03/17 06:40:17;;;;;;;50.53;32.27;;;8.10;99.90;;;;;;4994033;28;20448;-72
2022/03/17 06:42:44;;;;;;;51.33;31.20;;;8.20;99.90;;;;;;4993769;28;20426;-75
2022/03/17 06:45:10;;;;;;;55.03;32.93;;;8.30;99.90;;;;;;4993789;28;20420;-75
2022/03/17 06:47:36;;;;;;;48.80;32.60;;;8.30;99.90;;;;;;4993585;28;20990;-75
2022/03/17 06:50:02;;;;;;;50.80;31.50;;;8.40;99.90;;;;;;4993950;28;20450;-75
2022/03/17 06:52:28;;;;;;;52.00;32.37;;;8.40;99.90;;;;;;4993551;28;20933;-73
2022/03/17 06:54:54;;;;;;;50.20;31.70;;;8.40;99.90;;;;;;4993964;28;20466;-75
2022/03/17 06:57:20;;;;;;;54.73;34.37;;;8.50;99.90;;;;;;4993884;28;20180;-71
2022/03/17 06:59:48;;;;;;;47.70;31.50;;;8.50;99.90;;;;;;4993711;28;20190;-74
2022/03/17 07:02:13;;;;;;;47.80;32.43;;;8.50;99.90;;;;;;4994497;28;20474;-71
2022/03/17 07:04:39;;;;;;;49.13;31.27;;;8.60;99.90;;;;;;4993127;28;20428;-71
2022/03/17 07:07:05;;;;;;;50.97;32.07;;;8.60;99.90;;;;;;4993358;28;20201;-71
2022/03/17 07:09:30;;;;;;;54.23;32.97;;;8.60;99.90;;;;;;4993044;28;20207;-71
2022/03/17 07:11:56;;;;;;;47.33;31.57;;;8.60;99.90;;;;;;4993226;28;20264;-71
2022/03/17 07:14:21;;;;;;;48.97;33.40;;;8.70;99.90;;;;;;4991613;28;20169;-72
2022/03/17 07:16:47;;;;;;;46.90;32.10;;;8.70;99.90;;;;;;4992012;28;20187;-73
2022/03/17 07:19:13;;;;;;;51.00;35.30;;;8.80;99.90;;;;;;4992735;28;20200;-73
2022/03/17 07:21:39;;;;;;;47.80;32.00;;;8.80;99.90;;;;;;4993215;28;20202;-73
2022/03/17 07:24:06;;;;;;;49.00;31.40;;;8.80;99.90;;;;;;4992992;28;20194;-73
2022/03/17 07:26:31;;;;;;;52.30;33.27;;;8.80;99.90;;;;;;4992864;28;20449;-73
2022/03/17 07:28:57;;;;;;;49.67;30.97;;;8.90;99.90;;;;;;4993073;28;21205;-73
2022/03/17 07:31:26;;;;;;;51.60;33.90;;;8.90;99.90;;;;;;4992489;28;20220;-73
2022/03/17 07:33:51;;;;;;;58.10;35.37;;;9.00;99.90;;;;;;4991560;28;20264;-73
2022/03/17 07:36:17;;;;;;;46.77;32.70;;;9.00;99.90;;;;;;4990886;28;20503;-73
2022/03/17 07:38:42;;;;;;;53.80;34.57;;;9.10;99.90;;;;;;4992982;28;20547;-73
2022/03/17 07:41:08;;;;;;;53.10;32.27;;;9.20;99.90;;;;;;4992304;28;20196;-73
2022/03/17 07:43:33;;;;;;;48.70;33.00;;;9.20;99.90;;;;;;4992765;28;20197;-75
2022/03/17 07:45:59;;;;;;;55.90;35.40;;;9.20;99.90;;;;;;4992179;28;20185;-76
2022/03/17 07:48:25;;;;;;;50.80;33.23;;;9.30;99.90;;;;;;4992196;28;20295;-76
2022/03/17 07:50:50;;;;;;;47.43;32.07;;;9.30;99.90;;;;;;4992824;28;20231;-77
2022/03/17 07:53:17;;;;;;;45.07;31.00;;;9.40;99.90;;;;;;4992239;28;20476;-76
2022/03/17 07:55:43;;;;;;;49.80;34.10;;;9.40;99.90;;;;;;4992656;28;20174;-76
2022/03/17 07:58:10;;;;;;;54.40;32.27;;;9.40;99.90;;;;;;4992071;28;20857;-76
2022/03/17 08:00:40;;;;;;;54.73;35.27;;;9.50;99.90;;;;;;4992346;28;20466;-76
2022/03/17 08:03:06;;;;;;;56.23;33.77;;;9.50;99.90;;;;;;4991703;28;20420;-76
2022/03/17 08:05:32;;;;;;;52.10;32.13;;;9.50;99.90;;;;;;4992065;28;20427;-76
2022/03/17 08:08:00;;;;;;;55.03;33.90;;;9.60;99.90;;;;;;4992405;28;20189;-76
2022/03/17 08:10:28;;;;;;;55.33;34.77;;;9.60;99.90;;;;;;4991848;28;20651;-76
2022/03/17 08:12:53;;;;;;;59.10;33.77;;;9.60;99.90;;;;;;4992065;28;20573;-76
2022/03/17 08:15:19;;;;;;;50.13;32.70;;;9.60;99.90;;;;;;4992060;28;20500;-76
2022/03/17 08:17:45;;;;;;;50.80;33.20;;;9.60;99.90;;;;;;4992440;28;20225;-76
2022/03/17 08:20:10;;;;;;;47.60;32.67;;;9.60;99.90;;;;;;4992021;28;20725;-77
2022/03/17 08:22:36;;;;;;;55.70;35.57;;;9.70;99.90;;;;;;4992010;28;20188;-74
2022/03/17 08:25:39;;;;;;;55.87;32.63;;;9.70;99.90;;;;;;4991778;28;20676;-76
2022/03/17 08:28:04;;;;;;;53.67;34.17;;;9.70;99.90;;;;;;4991634;28;20176;-75
2022/03/17 08:30:32;;;;;;;49.10;33.00;;;9.80;99.90;;;;;;4992207;28;20420;-75
2022/03/17 08:32:58;;;;;;;55.20;35.67;;;9.80;99.90;;;;;;4991550;28;20684;-74
2022/03/17 08:35:25;;;;;;;47.97;33.60;;;9.90;99.90;;;;;;4992055;28;20418;-73
2022/03/17 08:37:51;;;;;;;52.73;35.30;;;10.00;99.90;;;;;;4994285;28;20559;-75
2022/03/17 08:40:17;;;;;;;49.97;32.67;;;10.00;99.90;;;;;;4993021;28;20764;-75
2022/03/17 08:42:42;;;;;;;55.50;34.60;;;9.90;99.90;;;;;;4991713;28;20421;-76
2022/03/17 08:50:43;;;;;;;53.30;33.60;;;10.00;99.90;;;;;;4992194;28;20443;-77
2022/03/17 08:53:09;;;;;;;57.80;33.23;;;10.00;99.90;;;;;;4991871;28;20414;-71
2022/03/17 08:55:37;;;;;;;51.43;33.27;;;10.00;99.90;;;;;;4992075;28;20407;-74
2022/03/17 08:58:03;;;;;;;52.17;32.60;;;10.00;99.90;;;;;;4991522;28;20422;-74
2022/03/17 09:00:34;;;;;;;50.87;32.80;;;10.10;99.90;;;;;;4991240;28;20400;-74
2022/03/17 09:03:06;;;;;;;46.43;32.80;;;10.20;99.90;;;;;;4991471;28;20420;-74
2022/03/17 09:05:33;;;;;;;50.53;33.87;;;10.20;99.90;;;;;;4991814;28;20399;-71
2022/03/17 09:08:00;;;;;;;45.40;31.83;;;10.20;99.90;;;;;;4992195;28;20513;-76
2022/03/17 09:10:26;;;;;;;62.60;33.70;;;10.30;99.90;;;;;;4991722;28;20794;-74
2022/03/17 09:12:55;;;;;;;55.13;33.07;;;10.40;99.90;;;;;;4991260;28;20828;-74
2022/03/17 09:15:21;;;;;;;50.70;35.20;;;10.40;99.90;;;;;;4991354;28;20520;-75
2022/03/17 09:17:47;;;;;;;47.13;32.37;;;10.50;99.90;;;;;;4991573;28;20420;-75
2022/03/17 09:20:15;;;;;;;51.00;33.53;;;10.60;99.90;;;;;;4990048;28;20755;-75
2022/03/17 09:22:42;;;;;;;53.00;32.80;;;10.60;99.90;;;;;;4991327;28;20174;-75
2022/03/17 09:25:09;;;;;;;46.80;32.03;;;10.70;99.90;;;;;;4990604;28;20940;-74
2022/03/17 09:27:34;;;;;;;48.60;33.77;;;10.70;99.90;;;;;;4990276;28;20425;-73
2022/03/17 09:30:00;;;;;;;42.70;30.10;;;10.80;99.90;;;;;;4991504;28;20460;-73
2022/03/17 09:32:28;;;;;;;46.50;30.90;;;10.80;99.90;;;;;;4991629;28;20218;-73
2022/03/17 09:34:53;;;;;;;47.20;32.40;;;10.90;99.90;;;;;;4991833;28;20704;-73
2022/03/17 09:37:19;;;;;;;46.57;32.77;;;10.90;99.90;;;;;;4990669;28;20421;-72
2022/03/17 09:39:48;;;;;;;44.17;30.00;;;10.90;99.90;;;;;;4991782;28;20189;-73
2022/03/17 09:42:15;;;;;;;48.70;31.17;;;11.00;99.90;;;;;;4991980;28;20194;-73
2022/03/17 09:44:45;;;;;;;49.90;34.13;;;11.00;99.90;;;;;;4991735;28;20417;-72
2022/03/17 09:47:11;;;;;;;47.33;30.60;;;11.10;99.90;;;;;;4991502;28;20492;-73
2022/03/17 09:49:38;;;;;;;48.00;34.00;;;11.10;99.90;;;;;;4991411;28;20515;-73
2022/03/17 09:52:10;;;;;;;52.37;33.47;;;11.10;99.90;;;;;;4991261;28;20973;-73
2022/03/17 09:54:37;;;;;;;50.20;33.00;;;11.20;99.90;;;;;;4991781;28;20718;-72
2022/03/17 09:57:03;;;;;;;53.13;33.27;;;11.30;99.90;;;;;;4994718;28;20949;-73
2022/03/17 09:59:29;;;;;;;48.57;31.20;;;11.30;99.90;;;;;;4995079;28;20540;-73
2022/03/17 10:01:56;;;;;;;44.90;32.13;;;11.30;99.90;;;;;;4994842;28;20475;-73
2022/03/17 10:04:22;;;;;;;53.80;33.70;;;11.40;99.90;;;;;;4995063;28;20262;-73
2022/03/17 10:06:47;;;;;;;43.87;32.00;;;11.40;99.90;;;;;;4994466;28;20438;-73
2022/03/17 10:09:13;;;;;;;45.77;30.93;;;11.50;99.90;;;;;;4995109;28;20213;-73
2022/03/17 10:11:39;;;;;;;48.50;32.60;;;11.50;99.90;;;;;;4994771;28;20190;-73
2022/03/17 10:14:05;;;;;;;47.27;30.77;;;11.60;99.90;;;;;;4994976;28;20189;-73
2022/03/17 10:16:32;;;;;;;43.57;31.57;;;11.30;99.90;;;;;;4994721;28;20481;-73
2022/03/17 10:18:58;;;;;;;49.77;33.47;;;11.30;99.90;;;;;;4994914;28;20422;-73
2022/03/17 10:21:24;;;;;;;50.90;34.27;;;11.40;99.90;;;;;;4994475;28;20493;-73
2022/03/17 10:24:02;;;;;;;44.10;31.17;;;11.60;99.90;;;;;;4994815;28;20561;-73
2022/03/17 10:26:42;;;;;;;48.27;31.90;;;11.60;99.90;;;;;;4994509;28;20166;-73
2022/03/17 10:29:25;;;;;;;52.13;32.90;;;11.70;99.90;;;;;;4994601;28;20452;-73
2022/03/17 10:32:01;;;;;;;45.43;32.70;;;11.70;99.90;;;;;;4994274;28;20545;-73
2022/03/17 10:34:33;;;;;;;48.23;30.87;;;11.70;99.90;;;;;;4994357;28;20535;-73
2022/03/17 10:37:10;;;;;;;41.60;29.70;;;11.80;99.90;;;;;;4994784;28;20413;-73
2022/03/17 10:40:11;;;;;;;44.47;27.97;;;12.00;99.90;;;;;;4996383;28;20410;-73
2022/03/17 10:42:38;;;;;;;39.50;26.63;;;12.10;99.90;;;;;;4994814;28;20454;-72
2022/03/17 10:45:06;;;;;;;43.27;26.63;;;12.30;99.90;;;;;;4996757;28;20433;-72
2022/03/17 10:47:39;;;;;;;37.57;25.10;;;12.40;99.90;;;;;;4996759;28;20481;-71
2022/03/17 10:50:18;;;;;;;45.50;27.37;;;12.40;99.90;;;;;;4997519;28;20807;-71
2022/03/17 10:52:51;;;;;;;39.63;25.60;;;12.40;99.90;;;;;;4996675;28;20411;-71
2022/03/17 10:55:22;;;;;;;45.90;26.27;;;12.50;99.90;;;;;;4996595;28;20441;-75
2022/03/17 10:57:53;;;;;;;41.87;28.20;;;12.50;99.90;;;;;;4997456;28;20933;-74
2022/03/17 11:00:25;;;;;;;43.60;28.10;;;12.50;99.90;;;;;;4996631;28;20509;-73
2022/03/17 11:02:57;;;;;;;47.93;28.20;;;12.40;99.90;;;;;;4997864;28;20411;-74
2022/03/17 11:05:24;;;;;;;44.30;27.90;;;12.40;99.90;;;;;;4997104;28;20437;-71
2022/03/17 11:07:53;;;;;;;39.83;26.80;;;12.50;99.90;;;;;;4995749;28;20418;-72
2022/03/17 11:10:20;;;;;;;40.67;28.37;;;12.40;99.90;;;;;;4979371;28;20806;-72
2022/03/17 11:12:46;;;;;;;42.43;27.27;;;12.50;99.90;;;;;;4995881;28;20415;-73
2022/03/17 11:15:13;;;;;;;43.50;28.80;;;12.60;99.90;;;;;;4995234;28;20960;-76
2022/03/17 11:17:50;;;;;;;43.83;28.60;;;12.60;99.90;;;;;;4998402;28;20414;-76
2022/03/17 11:20:25;;;;;;;44.83;30.03;;;12.50;99.90;;;;;;4996767;28;20414;-73
2022/03/17 11:23:21;;;;;;;45.10;27.70;;;12.40;99.90;;;;;;4997291;28;20414;-76
2022/03/17 11:25:58;;;;;;;43.10;28.50;;;12.50;99.90;;;;;;4989152;28;20415;-73
2022/03/17 11:28:36;;;;;;;36.97;28.40;;;12.40;99.90;;;;;;4996395;28;20834;-77
2022/03/17 11:31:10;;;;;;;44.63;29.30;;;12.40;99.90;;;;;;4996199;28;21009;-73
2022/03/17 11:33:44;;;;;;;43.53;29.87;;;12.30;99.90;;;;;;4994977;28;20405;-76
2022/03/17 11:36:10;;;;;;;43.40;28.53;;;12.30;99.90;;;;;;4995055;28;20469;-74
2022/03/17 11:38:37;;;;;;;45.93;30.77;;;12.20;99.90;;;;;;4994814;28;20417;-74
2022/03/17 11:41:09;;;;;;;50.80;29.90;;;12.20;99.90;;;;;;4996074;28;20195;-75
2022/03/17 11:43:47;;;;;;;48.87;30.90;;;12.20;99.90;;;;;;4994780;28;20414;-72
2022/03/17 11:46:14;;;;;;;53.67;33.33;;;12.20;99.90;;;;;;4994287;28;20418;-72
2022/03/17 11:48:40;;;;;;;44.50;30.13;;;12.00;99.90;;;;;;4993191;28;20824;-73
2022/03/17 11:51:08;;;;;;;49.30;31.60;;;12.00;99.90;;;;;;4993231;28;20461;-76
2022/03/17 11:53:47;;;;;;;47.53;31.30;;;12.00;99.90;;;;;;4992725;28;20466;-77
2022/03/17 11:56:37;;;;;;;48.90;30.40;;;12.00;99.90;;;;;;4992792;28;20449;-77
2022/03/17 11:59:05;;;;;;;51.33;31.20;;;11.90;99.90;;;;;;4992801;28;20473;-77
2022/03/17 12:01:36;;;;;;;47.43;31.00;;;11.90;99.90;;;;;;4992582;28;20438;-77
2022/03/17 12:04:03;;;;;;;48.27;32.73;;;11.90;99.90;;;;;;4991963;28;20779;-77
2022/03/17 12:06:31;;;;;;;50.13;31.20;;;11.90;99.90;;;;;;4987694;28;20448;-77
2022/03/17 12:09:01;;;;;;;49.40;32.07;;;11.90;99.90;;;;;;4992547;28;20469;-77
2022/03/17 12:11:44;;;;;;;51.40;32.60;;;11.90;99.90;;;;;;4986602;28;20439;-76
2022/03/17 12:14:22;;;;;;;49.40;32.67;;;11.80;99.90;;;;;;4984226;28;20422;-77
2022/03/17 12:17:00;;;;;;;51.30;32.07;;;11.80;99.90;;;;;;4980529;28;20430;-76
2022/03/17 12:19:39;;;;;;;43.40;31.33;;;11.80;99.90;;;;;;4975676;28;20496;-77
2022/03/17 12:22:11;;;;;;;51.00;31.73;;;11.90;99.90;;;;;;4983498;28;20450;-75
2022/03/17 12:24:47;;;;;;;57.07;31.27;;;12.00;99.90;;;;;;4989980;28;20453;-77
2022/03/17 12:27:20;;;;;;;51.50;31.97;;;11.90;99.90;;;;;;4992826;28;20758;-77
2022/03/17 12:29:49;;;;;;;50.73;33.10;;;12.00;99.90;;;;;;4991804;28;20476;-76
2022/03/17 12:32:18;;;;;;;59.17;34.27;;;12.00;99.90;;;;;;4992220;28;20450;-76
2022/03/17 12:34:51;;;;;;;46.70;31.33;;;12.10;99.90;;;;;;4993410;28;20424;-76
2022/03/17 12:37:19;;;;;;;48.37;33.90;;;12.20;99.90;;;;;;4992871;28;20425;-77
2022/03/17 12:39:53;;;;;;;51.13;31.53;;;12.30;99.90;;;;;;4992625;28;20411;-76
2022/03/17 12:42:20;;;;;;;53.93;30.90;;;12.40;99.90;;;;;;4991407;28;20520;-76
2022/03/17 12:44:48;;;;;;;54.67;34.33;;;12.50;99.90;;;;;;4992031;28;20764;-76
2022/03/17 12:47:14;;;;;;;49.43;32.57;;;12.40;99.90;;;;;;4992294;28;20425;-76
2022/03/17 12:49:41;;;;;;;57.50;32.77;;;12.60;99.90;;;;;;4992473;28;20458;-77
2022/03/17 12:52:21;;;;;;;50.80;32.27;;;12.50;99.90;;;;;;4991949;28;20208;-76
2022/03/17 12:54:49;;;;;;;47.73;32.30;;;12.60;99.90;;;;;;4991792;28;20772;-76
2022/03/17 12:57:15;;;;;;;51.30;34.67;;;12.50;99.90;;;;;;4997782;28;20457;-76
2022/03/17 12:59:40;;;;;;;57.10;34.13;;;12.50;99.90;;;;;;5011297;28;20452;-76
2022/03/17 13:02:07;;;;;;;50.83;33.87;;;12.40;99.90;;;;;;5011101;28;20198;-77
2022/03/17 13:04:54;;;;;;;57.33;34.80;;;12.30;99.90;;;;;;5011189;28;20178;-76
2022/03/17 13:07:22;;;;;;;51.57;32.30;;;12.20;99.90;;;;;;5011014;28;20460;-76
2022/03/17 13:09:48;;;;;;;51.23;34.17;;;12.20;99.90;;;;;;5015822;28;20823;-76
2022/03/17 13:15:04;;;;;;;48.13;33.47;;;12.20;99.90;;;;;;5014517;28;20455;-76
2022/03/17 13:17:43;;;;;;;49.60;32.70;;;12.30;99.90;;;;;;5014936;28;20972;-73
2022/03/17 13:20:22;;;;;;;47.33;33.37;;;12.30;99.90;;;;;;5007393;28;20796;-77
2022/03/17 13:23:01;;;;;;;52.23;34.00;;;12.20;99.90;;;;;;4974954;28;20467;-74
2022/03/17 13:25:29;;;;;;;48.40;35.20;;;12.20;99.90;;;;;;4992634;28;20601;-77
2022/03/17 13:28:02;;;;;;;49.07;32.93;;;12.10;99.90;;;;;;4992216;28;20473;-74
2022/03/17 13:30:29;;;;;;;52.53;34.17;;;12.10;99.90;;;;;;4992866;28;20565;-74
2022/03/17 13:33:04;;;;;;;50.77;34.70;;;12.10;99.90;;;;;;5014181;28;20453;-75
2022/03/17 13:35:47;;;;;;;48.00;34.07;;;12.10;99.90;;;;;;5001784;28;20478;-75
2022/03/17 13:38:18;;;;;;;50.20;34.73;;;12.00;99.90;;;;;;4998359;28;20445;-78
2022/03/17 13:40:57;;;;;;;49.80;33.10;;;12.00;99.90;;;;;;4998667;28;20465;-78
2022/03/17 13:43:31;;;;;;;49.87;33.90;;;12.00;99.90;;;;;;4995830;28;20450;-74
2022/03/17 13:45:58;;;;;;;53.50;34.80;;;12.00;99.90;;;;;;4995554;28;20935;-78
2022/03/17 13:48:26;;;;;;;47.03;33.00;;;12.00;99.90;;;;;;4997249;28;20930;-74
2022/03/17 13:50:57;;;;;;;49.57;33.43;;;12.00;99.90;;;;;;4997856;28;20461;-76
2022/03/17 13:53:39;;;;;;;49.73;31.53;;;11.90;99.90;;;;;;4997764;28;20440;-76
2022/03/17 13:56:12;;;;;;;51.10;32.30;;;11.80;99.90;;;;;;4998412;28;20522;-77
2022/03/17 13:58:45;;;;;;;47.20;32.50;;;11.70;99.90;;;;;;4999382;28;20745;-74
2022/03/17 14:01:18;;;;;;;51.50;33.40;;;11.60;99.90;;;;;;4999359;28;20465;-74
2022/03/17 14:03:51;;;;;;;57.57;34.80;;;11.50;99.90;;;;;;4996497;28;20440;-76
2022/03/17 14:06:17;;;;;;;58.87;34.57;;;11.40;99.90;;;;;;4978143;28;20691;-75
2022/03/17 14:08:46;;;;;;;55.03;34.83;;;11.40;99.90;;;;;;4976886;28;20509;-74
2022/03/17 14:11:16;;;;;;;55.20;34.63;;;11.30;99.90;;;;;;4979475;28;20459;-76
2022/03/17 14:13:47;;;;;;;58.90;34.83;;;11.30;99.90;;;;;;4978789;28;20570;-72
2022/03/17 14:16:14;;;;;;;56.20;35.80;;;11.30;99.90;;;;;;4977044;28;20497;-72
2022/03/17 14:18:50;;;;;;;56.20;34.47;;;11.30;99.90;;;;;;4977525;28;20966;-71
2022/03/17 14:21:19;;;;;;;52.87;33.90;;;11.30;99.90;;;;;;4977283;28;20466;-74
2022/03/17 14:24:10;;;;;;;58.00;34.10;;;11.20;99.90;;;;;;4977612;28;21006;-73
2022/03/17 14:26:42;;;;;;;50.70;34.53;;;11.30;99.90;;;;;;4979917;28;20462;-72